sensor_id;sensor_type;location;lat;lon;timestamp;temperature;humidity
29575;DHT22;16507;51.046;6.406;2022-12-24T00:01:08;10.20;99.90
29575;DHT22;16507;51.046;6.406;2022-12-24T00:03:36;10.20;99.90
29575;DHT22;16507;51.046;6.406;2022-12-24T00:06:15;10.20;99.90
29575;DHT22;16507;51.046;6.406;2022-12-24T00:08:41;10.20;99.90
29575;DHT22;16507;51.046;6.406;2022-12-24T00:11:07;10.10;99.90
29575;DHT22;16507;51.046;6.406;2022-12-24T00:13:33;10.20;99.90
29575;DHT22;16507;51.046;6.406;2022-12-24T00:15:59;10.20;99.90
29575;DHT22;16507;51.046;6.406;2022-12-24T00:18:25;10.30;99.90
29575;DHT22;16507;51.046;6.406;2022-12-24T00:20:51;10.30;99.90
29575;DHT22;16507;51.046;6.406;2022-12-24T00:23:17;10.00;99.90
29575;DHT22;16507;51.046;6.406;2022-12-24T00:25:42;10.00;99.90
29575;DHT22;16507;51.046;6.406;2022-12-24T00:28:08;10.00;99.90
29575;DHT22;16507;51.046;6.406;2022-12-24T00:30:36;10.00;99.90
29575;DHT22;16507;51.046;6.406;2022-12-24T00:33:01;10.10;99.90
29575;DHT22;16507;51.046;6.406;2022-12-24T00:35:27;10.10;99.90
29575;DHT22;16507;51.046;6.406;2022-12-24T00:37:53;10.10;99.90
29575;DHT22;16507;51.046;6.406;2022-12-24T00:40:19;10.10;99.90
29575;DHT22;16507;51.046;6.406;2022-12-24T00:42:45;10.20;99.90
29575;DHT22;16507;51.046;6.406;2022-12-24T00:45:11;10.10;99.90
29575;DHT22;16507;51.046;6.406;2022-12-24T00:47:37;9.90;99.90
29575;DHT22;16507;51.046;6.406;2022-12-24T00:50:03;9.90;99.90
29575;DHT22;16507;51.046;6.406;2022-12-24T00:52:29;9.90;99.90
29575;DHT22;16507;51.046;6.406;2022-12-24T00:54:55;9.90;99.90
29575;DHT22;16507;51.046;6.406;2022-12-24T00:57:20;9.90;99.90
29575;DHT22;16507;51.046;6.406;2022-12-24T00:59:46;9.80;99.90
29575;DHT22;16507;51.046;6.406;2022-12-24T01:02:12;9.80;99.90
29575;DHT22;16507;51.046;6.406;2022-12-24T01:04:37;9.80;99.90
29575;DHT22;16507;51.046;6.406;2022-12-24T01:07:21;9.90;99.90
29575;DHT22;16507;51.046;6.406;2022-12-24T01:09:47;10.00;99.90
29575;DHT22;16507;51.046;6.406;2022-12-24T01:12:12;9.90;99.90
29575;DHT22;16507;51.046;6.406;2022-12-24T01:14:38;9.80;99.90
29575;DHT22;16507;51.046;6.406;2022-12-24T01:17:04;9.60;99.90
29575;DHT22;16507;51.046;6.406;2022-12-24T01:19:29;9.50;99.90
29575;DHT22;16507;51.046;6.406;2022-12-24T01:21:55;9.60;99.90
29575;DHT22;16507;51.046;6.406;2022-12-24T01:24:21;9.80;99.90
29575;DHT22;16507;51.046;6.406;2022-12-24T01:26:46;9.90;99.90
29575;DHT22;16507;51.046;6.406;2022-12-24T01:29:12;10.00;99.90
29575;DHT22;16507;51.046;6.406;2022-12-24T01:31:38;10.10;99.90
29575;DHT22;16507;51.046;6.406;2022-12-24T01:34:03;10.10;99.90
29575;DHT22;16507;51.046;6.406;2022-12-24T01:36:29;10.10;99.90
29575;DHT22;16507;51.046;6.406;2022-12-24T01:38:54;10.10;99.90
29575;DHT22;16507;51.046;6.406;2022-12-24T01:41:22;10.10;99.90
29575;DHT22;16507;51.046;6.406;2022-12-24T01:46:41;10.00;99.90
29575;DHT22;16507;51.046;6.406;2022-12-24T01:49:10;10.00;99.90
29575;DHT22;16507;51.046;6.406;2022-12-24T01:56:41;10.00;99.90
29575;DHT22;16507;51.046;6.406;2022-12-24T01:59:09;10.00;99.90
29575;DHT22;16507;51.046;6.406;2022-12-24T02:01:37;9.90;99.90
29575;DHT22;16507;51.046;6.406;2022-12-24T02:04:16;10.00;99.90
29575;DHT22;16507;51.046;6.406;2022-12-24T02:06:44;10.00;99.90
29575;DHT22;16507;51.046;6.406;2022-12-24T02:09:10;9.90;99.90
29575;DHT22;16507;51.046;6.406;2022-12-24T02:11:37;9.90;99.90
29575;DHT22;16507;51.046;6.406;2022-12-24T02:14:05;9.80;99.90
29575;DHT22;16507;51.046;6.406;2022-12-24T02:16:37;9.80;99.90
29575;DHT22;16507;51.046;6.406;2022-12-24T02:22:07;9.80;99.90
29575;DHT22;16507;51.046;6.406;2022-12-24T02:27:52;9.90;99.90
29575;DHT22;16507;51.046;6.406;2022-12-24T02:30:21;10.00;99.90
29575;DHT22;16507;51.046;6.406;2022-12-24T02:41:07;10.20;99.90
29575;DHT22;16507;51.046;6.406;2022-12-24T02:43:37;10.10;99.90
29575;DHT22;16507;51.046;6.406;2022-12-24T02:46:10;10.20;99.90
29575;DHT22;16507;51.046;6.406;2022-12-24T02:48:38;10.20;99.90
29575;DHT22;16507;51.046;6.406;2022-12-24T02:51:07;10.20;99.90
29575;DHT22;16507;51.046;6.406;2022-12-24T02:53:35;10.20;99.90
29575;DHT22;16507;51.046;6.406;2022-12-24T03:01:44;10.10;99.90
29575;DHT22;16507;51.046;6.406;2022-12-24T03:07:00;9.80;99.90
29575;DHT22;16507;51.046;6.406;2022-12-24T03:12:09;9.60;99.90
29575;DHT22;16507;51.046;6.406;2022-12-24T03:14:39;9.50;99.90
29575;DHT22;16507;51.046;6.406;2022-12-24T03:17:07;9.60;99.90
29575;DHT22;16507;51.046;6.406;2022-12-24T03:19:33;9.70;99.90
29575;DHT22;16507;51.046;6.406;2022-12-24T03:22:01;9.70;99.90
29575;DHT22;16507;51.046;6.406;2022-12-24T03:24:28;9.80;99.90
29575;DHT22;16507;51.046;6.406;2022-12-24T03:26:55;9.80;99.90
29575;DHT22;16507;51.046;6.406;2022-12-24T03:29:21;9.70;99.90
29575;DHT22;16507;51.046;6.406;2022-12-24T03:31:48;9.80;99.90
29575;DHT22;16507;51.046;6.406;2022-12-24T03:34:15;9.70;99.90
29575;DHT22;16507;51.046;6.406;2022-12-24T03:36:41;9.70;99.90
29575;DHT22;16507;51.046;6.406;2022-12-24T03:39:08;9.60;99.90
29575;DHT22;16507;51.046;6.406;2022-12-24T03:41:34;9.60;99.90
29575;DHT22;16507;51.046;6.406;2022-12-24T03:44:00;9.60;99.90
29575;DHT22;16507;51.046;6.406;2022-12-24T03:46:25;9.50;99.90
29575;DHT22;16507;51.046;6.406;2022-12-24T03:48:51;9.60;99.90
29575;DHT22;16507;51.046;6.406;2022-12-24T03:51:21;9.60;99.90
29575;DHT22;16507;51.046;6.406;2022-12-24T03:53:47;9.60;99.90
29575;DHT22;16507;51.046;6.406;2022-12-24T03:56:13;9.70;99.90
29575;DHT22;16507;51.046;6.406;2022-12-24T03:58:39;9.60;99.90
29575;DHT22;16507;51.046;6.406;2022-12-24T04:01:05;9.60;99.90
29575;DHT22;16507;51.046;6.406;2022-12-24T04:03:30;9.70;99.90
29575;DHT22;16507;51.046;6.406;2022-12-24T04:06:13;9.70;99.90
29575;DHT22;16507;51.046;6.406;2022-12-24T04:08:40;9.70;99.90
29575;DHT22;16507;51.046;6.406;2022-12-24T04:11:09;9.70;99.90
29575;DHT22;16507;51.046;6.406;2022-12-24T04:13:35;9.60;99.90
29575;DHT22;16507;51.046;6.406;2022-12-24T04:16:04;9.60;99.90
29575;DHT22;16507;51.046;6.406;2022-12-24T04:18:30;9.60;99.90
29575;DHT22;16507;51.046;6.406;2022-12-24T04:20:56;9.60;99.90
29575;DHT22;16507;51.046;6.406;2022-12-24T04:23:22;9.60;99.90
29575;DHT22;16507;51.046;6.406;2022-12-24T04:25:48;9.50;99.90
29575;DHT22;16507;51.046;6.406;2022-12-24T04:28:15;9.50;99.90
29575;DHT22;16507;51.046;6.406;2022-12-24T04:30:41;9.40;99.90
29575;DHT22;16507;51.046;6.406;2022-12-24T04:33:06;9.40;99.90
29575;DHT22;16507;51.046;6.406;2022-12-24T04:35:32;9.40;99.90
29575;DHT22;16507;51.046;6.406;2022-12-24T04:37:58;9.30;99.90
29575;DHT22;16507;51.046;6.406;2022-12-24T04:40:24;9.20;99.90
29575;DHT22;16507;51.046;6.406;2022-12-24T04:42:50;9.30;99.90
29575;DHT22;16507;51.046;6.406;2022-12-24T04:45:17;9.20;99.90
29575;DHT22;16507;51.046;6.406;2022-12-24T04:47:43;9.30;99.90
29575;DHT22;16507;51.046;6.406;2022-12-24T04:50:09;9.30;99.90
29575;DHT22;16507;51.046;6.406;2022-12-24T04:52:35;9.40;99.90
29575;DHT22;16507;51.046;6.406;2022-12-24T04:55:01;9.40;99.90
29575;DHT22;16507;51.046;6.406;2022-12-24T04:57:26;9.50;99.90
29575;DHT22;16507;51.046;6.406;2022-12-24T04:59:52;9.50;99.90
29575;DHT22;16507;51.046;6.406;2022-12-24T05:02:18;9.40;99.90
29575;DHT22;16507;51.046;6.406;2022-12-24T05:04:43;9.40;99.90
29575;DHT22;16507;51.046;6.406;2022-12-24T05:07:09;9.40;99.90
29575;DHT22;16507;51.046;6.406;2022-12-24T05:09:34;9.40;99.90
29575;DHT22;16507;51.046;6.406;2022-12-24T05:12:00;9.40;99.90
29575;DHT22;16507;51.046;6.406;2022-12-24T05:14:26;9.40;99.90
29575;DHT22;16507;51.046;6.406;2022-12-24T05:16:51;9.40;99.90
29575;DHT22;16507;51.046;6.406;2022-12-24T05:19:17;9.50;99.90
29575;DHT22;16507;51.046;6.406;2022-12-24T05:21:42;9.50;99.90
29575;DHT22;16507;51.046;6.406;2022-12-24T05:24:10;9.50;99.90
29575;DHT22;16507;51.046;6.406;2022-12-24T05:26:56;9.50;99.90
29575;DHT22;16507;51.046;6.406;2022-12-24T05:29:22;9.50;99.90
29575;DHT22;16507;51.046;6.406;2022-12-24T05:31:48;9.50;99.90
29575;DHT22;16507;51.046;6.406;2022-12-24T05:34:15;9.60;99.90
29575;DHT22;16507;51.046;6.406;2022-12-24T05:36:42;9.60;99.90
29575;DHT22;16507;51.046;6.406;2022-12-24T05:39:12;9.70;99.90
29575;DHT22;16507;51.046;6.406;2022-12-24T05:41:38;9.70;99.90
29575;DHT22;16507;51.046;6.406;2022-12-24T05:44:04;9.70;99.90
29575;DHT22;16507;51.046;6.406;2022-12-24T05:46:29;9.70;99.90
29575;DHT22;16507;51.046;6.406;2022-12-24T05:48:55;9.70;99.90
29575;DHT22;16507;51.046;6.406;2022-12-24T05:51:22;9.70;99.90
29575;DHT22;16507;51.046;6.406;2022-12-24T05:53:49;9.80;99.90
29575;DHT22;16507;51.046;6.406;2022-12-24T05:56:17;9.80;99.90
29575;DHT22;16507;51.046;6.406;2022-12-24T05:58:43;9.90;99.90
29575;DHT22;16507;51.046;6.406;2022-12-24T06:01:10;9.80;99.90
29575;DHT22;16507;51.046;6.406;2022-12-24T06:03:36;9.80;99.90
29575;DHT22;16507;51.046;6.406;2022-12-24T06:06:07;9.90;99.90
29575;DHT22;16507;51.046;6.406;2022-12-24T06:08:34;9.80;99.90
29575;DHT22;16507;51.046;6.406;2022-12-24T06:11:02;9.80;99.90
29575;DHT22;16507;51.046;6.406;2022-12-24T06:13:28;9.90;99.90
29575;DHT22;16507;51.046;6.406;2022-12-24T06:15:58;9.90;99.90
29575;DHT22;16507;51.046;6.406;2022-12-24T06:18:24;9.90;99.90
29575;DHT22;16507;51.046;6.406;2022-12-24T06:20:54;9.90;99.90
29575;DHT22;16507;51.046;6.406;2022-12-24T06:23:20;9.90;99.90
29575;DHT22;16507;51.046;6.406;2022-12-24T06:25:47;9.90;99.90
29575;DHT22;16507;51.046;6.406;2022-12-24T06:28:13;9.90;99.90
29575;DHT22;16507;51.046;6.406;2022-12-24T06:30:39;9.90;99.90
29575;DHT22;16507;51.046;6.406;2022-12-24T06:33:05;9.90;99.90
29575;DHT22;16507;51.046;6.406;2022-12-24T06:35:31;10.00;99.90
29575;DHT22;16507;51.046;6.406;2022-12-24T06:37:57;9.90;99.90
29575;DHT22;16507;51.046;6.406;2022-12-24T06:40:25;10.00;99.90
29575;DHT22;16507;51.046;6.406;2022-12-24T06:42:50;10.10;99.90
29575;DHT22;16507;51.046;6.406;2022-12-24T06:45:16;10.10;99.90
29575;DHT22;16507;51.046;6.406;2022-12-24T06:47:42;10.10;99.90
29575;DHT22;16507;51.046;6.406;2022-12-24T06:50:08;10.00;99.90
29575;DHT22;16507;51.046;6.406;2022-12-24T06:52:33;10.10;99.90
29575;DHT22;16507;51.046;6.406;2022-12-24T06:54:59;10.00;99.90
29575;DHT22;16507;51.046;6.406;2022-12-24T06:57:24;10.00;99.90
29575;DHT22;16507;51.046;6.406;2022-12-24T06:59:50;10.00;99.90
29575;DHT22;16507;51.046;6.406;2022-12-24T07:02:16;10.00;99.90
29575;DHT22;16507;51.046;6.406;2022-12-24T07:04:41;10.00;99.90
29575;DHT22;16507;51.046;6.406;2022-12-24T07:07:08;9.90;99.90
29575;DHT22;16507;51.046;6.406;2022-12-24T07:09:34;9.90;99.90
29575;DHT22;16507;51.046;6.406;2022-12-24T07:11:59;9.80;99.90
29575;DHT22;16507;51.046;6.406;2022-12-24T07:14:25;9.80;99.90
29575;DHT22;16507;51.046;6.406;2022-12-24T07:16:50;9.70;99.90
29575;DHT22;16507;51.046;6.406;2022-12-24T07:19:17;9.80;99.90
29575;DHT22;16507;51.046;6.406;2022-12-24T07:21:43;9.70;99.90
29575;DHT22;16507;51.046;6.406;2022-12-24T07:24:09;9.70;99.90
29575;DHT22;16507;51.046;6.406;2022-12-24T07:26:34;9.60;99.90
29575;DHT22;16507;51.046;6.406;2022-12-24T07:29:00;9.60;99.90
29575;DHT22;16507;51.046;6.406;2022-12-24T07:31:26;9.60;99.90
29575;DHT22;16507;51.046;6.406;2022-12-24T07:33:51;9.60;99.90
29575;DHT22;16507;51.046;6.406;2022-12-24T07:36:19;9.60;99.90
29575;DHT22;16507;51.046;6.406;2022-12-24T07:38:46;9.50;99.90
29575;DHT22;16507;51.046;6.406;2022-12-24T07:41:12;9.60;99.90
29575;DHT22;16507;51.046;6.406;2022-12-24T07:43:38;9.60;99.90
29575;DHT22;16507;51.046;6.406;2022-12-24T07:46:04;9.70;99.90
29575;DHT22;16507;51.046;6.406;2022-12-24T07:48:31;9.70;99.90
29575;DHT22;16507;51.046;6.406;2022-12-24T07:50:58;9.80;99.90
29575;DHT22;16507;51.046;6.406;2022-12-24T07:53:25;9.80;99.90
29575;DHT22;16507;51.046;6.406;2022-12-24T07:55:51;10.00;99.90
29575;DHT22;16507;51.046;6.406;2022-12-24T07:58:17;10.00;99.90
29575;DHT22;16507;51.046;6.406;2022-12-24T08:00:42;10.00;99.90
29575;DHT22;16507;51.046;6.406;2022-12-24T08:03:15;10.00;99.90
29575;DHT22;16507;51.046;6.406;2022-12-24T08:05:41;10.00;99.90
29575;DHT22;16507;51.046;6.406;2022-12-24T08:08:07;10.10;99.90
29575;DHT22;16507;51.046;6.406;2022-12-24T08:10:33;10.10;99.90
29575;DHT22;16507;51.046;6.406;2022-12-24T08:12:58;10.20;99.90
29575;DHT22;16507;51.046;6.406;2022-12-24T08:15:24;10.20;99.90
29575;DHT22;16507;51.046;6.406;2022-12-24T08:17:49;10.20;99.90
29575;DHT22;16507;51.046;6.406;2022-12-24T08:20:15;10.20;99.90
29575;DHT22;16507;51.046;6.406;2022-12-24T08:22:42;10.10;99.90
29575;DHT22;16507;51.046;6.406;2022-12-24T08:25:08;10.20;99.90
29575;DHT22;16507;51.046;6.406;2022-12-24T08:27:35;10.20;99.90
29575;DHT22;16507;51.046;6.406;2022-12-24T08:30:01;10.20;99.90
29575;DHT22;16507;51.046;6.406;2022-12-24T08:32:26;10.20;99.90
29575;DHT22;16507;51.046;6.406;2022-12-24T08:34:52;10.20;99.90
29575;DHT22;16507;51.046;6.406;2022-12-24T08:37:17;10.20;99.90
29575;DHT22;16507;51.046;6.406;2022-12-24T08:39:43;10.20;99.90
29575;DHT22;16507;51.046;6.406;2022-12-24T08:42:09;10.10;99.90
29575;DHT22;16507;51.046;6.406;2022-12-24T08:44:34;10.10;99.90
29575;DHT22;16507;51.046;6.406;2022-12-24T08:47:00;10.20;99.90
29575;DHT22;16507;51.046;6.406;2022-12-24T08:49:25;10.20;99.90
29575;DHT22;16507;51.046;6.406;2022-12-24T08:51:51;10.20;99.90
29575;DHT22;16507;51.046;6.406;2022-12-24T08:54:17;10.40;99.90
29575;DHT22;16507;51.046;6.406;2022-12-24T08:56:43;10.40;99.90
29575;DHT22;16507;51.046;6.406;2022-12-24T08:59:10;10.00;99.90
29575;DHT22;16507;51.046;6.406;2022-12-24T09:01:36;9.80;99.90
29575;DHT22;16507;51.046;6.406;2022-12-24T09:04:03;9.80;99.90
29575;DHT22;16507;51.046;6.406;2022-12-24T09:06:31;9.80;99.90
29575;DHT22;16507;51.046;6.406;2022-12-24T09:08:57;9.90;99.90
29575;DHT22;16507;51.046;6.406;2022-12-24T09:11:22;10.00;99.90
29575;DHT22;16507;51.046;6.406;2022-12-24T09:13:48;10.10;99.90
29575;DHT22;16507;51.046;6.406;2022-12-24T09:16:14;10.10;99.90
29575;DHT22;16507;51.046;6.406;2022-12-24T09:18:39;10.20;99.90
29575;DHT22;16507;51.046;6.406;2022-12-24T09:21:11;10.20;99.90
29575;DHT22;16507;51.046;6.406;2022-12-24T09:23:40;10.30;99.90
29575;DHT22;16507;51.046;6.406;2022-12-24T09:26:08;10.30;99.90
29575;DHT22;16507;51.046;6.406;2022-12-24T09:28:34;10.30;99.90
29575;DHT22;16507;51.046;6.406;2022-12-24T09:31:02;10.30;99.90
29575;DHT22;16507;51.046;6.406;2022-12-24T09:33:30;10.30;99.90
29575;DHT22;16507;51.046;6.406;2022-12-24T09:35:56;10.30;99.90
29575;DHT22;16507;51.046;6.406;2022-12-24T09:38:22;10.30;99.90
29575;DHT22;16507;51.046;6.406;2022-12-24T09:40:48;10.40;99.90
29575;DHT22;16507;51.046;6.406;2022-12-24T09:43:18;10.40;99.90
29575;DHT22;16507;51.046;6.406;2022-12-24T09:45:54;10.50;99.90
29575;DHT22;16507;51.046;6.406;2022-12-24T09:48:28;10.50;99.90
29575;DHT22;16507;51.046;6.406;2022-12-24T09:56:18;10.60;99.90
29575;DHT22;16507;51.046;6.406;2022-12-24T09:58:52;10.60;99.90
29575;DHT22;16507;51.046;6.406;2022-12-24T10:01:20;10.60;99.90
29575;DHT22;16507;51.046;6.406;2022-12-24T10:03:46;10.50;99.90
29575;DHT22;16507;51.046;6.406;2022-12-24T10:06:23;10.50;99.90
29575;DHT22;16507;51.046;6.406;2022-12-24T10:14:47;10.60;99.90
29575;DHT22;16507;51.046;6.406;2022-12-24T10:25:51;10.90;99.90
29575;DHT22;16507;51.046;6.406;2022-12-24T10:28:22;10.90;99.90
29575;DHT22;16507;51.046;6.406;2022-12-24T10:30:55;10.90;99.90
29575;DHT22;16507;51.046;6.406;2022-12-24T10:33:25;10.90;99.90
29575;DHT22;16507;51.046;6.406;2022-12-24T10:35:53;10.90;99.90
29575;DHT22;16507;51.046;6.406;2022-12-24T10:38:20;10.90;99.90
29575;DHT22;16507;51.046;6.406;2022-12-24T10:40:47;10.90;99.90
29575;DHT22;16507;51.046;6.406;2022-12-24T10:43:15;10.90;99.90
29575;DHT22;16507;51.046;6.406;2022-12-24T10:45:43;11.00;99.90
29575;DHT22;16507;51.046;6.406;2022-12-24T10:48:10;11.00;99.90
29575;DHT22;16507;51.046;6.406;2022-12-24T10:50:42;11.00;99.90
29575;DHT22;16507;51.046;6.406;2022-12-24T10:53:16;11.00;99.90
29575;DHT22;16507;51.046;6.406;2022-12-24T10:55:43;11.00;99.90
29575;DHT22;16507;51.046;6.406;2022-12-24T10:58:12;11.00;99.90
29575;DHT22;16507;51.046;6.406;2022-12-24T11:00:39;11.00;99.90
29575;DHT22;16507;51.046;6.406;2022-12-24T11:03:50;10.90;99.90
29575;DHT22;16507;51.046;6.406;2022-12-24T11:05:58;11.00;99.90
29575;DHT22;16507;51.046;6.406;2022-12-24T11:08:24;11.10;99.90
29575;DHT22;16507;51.046;6.406;2022-12-24T11:13:24;11.10;99.90
29575;DHT22;16507;51.046;6.406;2022-12-24T11:15:58;11.20;99.90
29575;DHT22;16507;51.046;6.406;2022-12-24T11:18:24;11.20;99.90
29575;DHT22;16507;51.046;6.406;2022-12-24T11:20:50;11.40;99.90
29575;DHT22;16507;51.046;6.406;2022-12-24T11:23:16;11.40;99.90
29575;DHT22;16507;51.046;6.406;2022-12-24T11:25:45;11.30;99.90
29575;DHT22;16507;51.046;6.406;2022-12-24T11:28:25;11.30;99.90
29575;DHT22;16507;51.046;6.406;2022-12-24T11:33:19;11.30;99.90
29575;DHT22;16507;51.046;6.406;2022-12-24T11:35:46;11.40;99.90
29575;DHT22;16507;51.046;6.406;2022-12-24T11:38:16;11.40;99.90
29575;DHT22;16507;51.046;6.406;2022-12-24T11:40:44;11.50;99.90
29575;DHT22;16507;51.046;6.406;2022-12-24T11:43:14;11.60;99.90
29575;DHT22;16507;51.046;6.406;2022-12-24T11:45:47;11.70;99.90
29575;DHT22;16507;51.046;6.406;2022-12-24T11:48:31;11.70;99.90
29575;DHT22;16507;51.046;6.406;2022-12-24T11:51:00;11.70;99.90
29575;DHT22;16507;51.046;6.406;2022-12-24T11:53:27;11.70;99.90
29575;DHT22;16507;51.046;6.406;2022-12-24T11:55:56;11.60;99.90
29575;DHT22;16507;51.046;6.406;2022-12-24T12:03:46;11.50;99.90
29575;DHT22;16507;51.046;6.406;2022-12-24T12:06:19;11.50;99.90
29575;DHT22;16507;51.046;6.406;2022-12-24T12:08:48;11.50;99.90
29575;DHT22;16507;51.046;6.406;2022-12-24T12:11:14;11.60;99.90
29575;DHT22;16507;51.046;6.406;2022-12-24T12:13:40;11.60;99.90
29575;DHT22;16507;51.046;6.406;2022-12-24T12:18:40;11.80;99.90
29575;DHT22;16507;51.046;6.406;2022-12-24T12:21:16;13.10;99.90
29575;DHT22;16507;51.046;6.406;2022-12-24T12:24:00;14.40;99.90
29575;DHT22;16507;51.046;6.406;2022-12-24T12:26:27;13.80;99.90
29575;DHT22;16507;51.046;6.406;2022-12-24T12:31:41;12.30;99.90
29575;DHT22;16507;51.046;6.406;2022-12-24T12:34:16;12.10;99.90
29575;DHT22;16507;51.046;6.406;2022-12-24T12:36:45;12.30;99.90
29575;DHT22;16507;51.046;6.406;2022-12-24T12:39:12;12.20;99.90
29575;DHT22;16507;51.046;6.406;2022-12-24T12:41:42;12.00;99.90
29575;DHT22;16507;51.046;6.406;2022-12-24T12:46:54;12.50;99.90
29575;DHT22;16507;51.046;6.406;2022-12-24T12:51:56;12.10;99.90
29575;DHT22;16507;51.046;6.406;2022-12-24T12:57:10;12.90;99.90
29575;DHT22;16507;51.046;6.406;2022-12-24T12:59:43;14.00;99.90
29575;DHT22;16507;51.046;6.406;2022-12-24T13:02:34;14.90;99.90
29575;DHT22;16507;51.046;6.406;2022-12-24T13:15:34;15.10;99.90
29575;DHT22;16507;51.046;6.406;2022-12-24T13:20:32;15.80;99.90
29575;DHT22;16507;51.046;6.406;2022-12-24T13:23:11;15.60;99.90
29575;DHT22;16507;51.046;6.406;2022-12-24T13:30:48;14.60;99.90
29575;DHT22;16507;51.046;6.406;2022-12-24T13:35:59;13.40;99.90
29575;DHT22;16507;51.046;6.406;2022-12-24T13:40:51;13.30;99.90
29575;DHT22;16507;51.046;6.406;2022-12-24T13:43:16;13.20;99.90
29575;DHT22;16507;51.046;6.406;2022-12-24T13:45:43;13.40;99.90
29575;DHT22;16507;51.046;6.406;2022-12-24T13:50:44;13.60;99.90
29575;DHT22;16507;51.046;6.406;2022-12-24T13:55:49;13.20;99.90
29575;DHT22;16507;51.046;6.406;2022-12-24T13:58:15;13.00;99.90
29575;DHT22;16507;51.046;6.406;2022-12-24T14:00:43;13.20;99.90
29575;DHT22;16507;51.046;6.406;2022-12-24T14:03:17;13.30;99.90
29575;DHT22;16507;51.046;6.406;2022-12-24T14:05:46;13.30;99.90
29575;DHT22;16507;51.046;6.406;2022-12-24T14:08:13;13.40;99.90
29575;DHT22;16507;51.046;6.406;2022-12-24T14:10:42;13.20;99.90
29575;DHT22;16507;51.046;6.406;2022-12-24T14:13:55;13.20;99.90
29575;DHT22;16507;51.046;6.406;2022-12-24T14:18:20;12.50;99.90
29575;DHT22;16507;51.046;6.406;2022-12-24T14:20:47;12.20;99.90
29575;DHT22;16507;51.046;6.406;2022-12-24T14:23:17;12.00;99.90
29575;DHT22;16507;51.046;6.406;2022-12-24T14:25:45;12.00;99.90
29575;DHT22;16507;51.046;6.406;2022-12-24T14:28:13;12.00;99.90
29575;DHT22;16507;51.046;6.406;2022-12-24T14:30:41;12.10;99.90
29575;DHT22;16507;51.046;6.406;2022-12-24T14:33:25;12.10;99.90
29575;DHT22;16507;51.046;6.406;2022-12-24T14:35:51;12.00;99.90
29575;DHT22;16507;51.046;6.406;2022-12-24T14:38:17;11.60;99.90
29575;DHT22;16507;51.046;6.406;2022-12-24T14:41:01;11.20;99.90
29575;DHT22;16507;51.046;6.406;2022-12-24T14:44:05;10.90;99.90
29575;DHT22;16507;51.046;6.406;2022-12-24T14:56:41;10.20;99.90
29575;DHT22;16507;51.046;6.406;2022-12-24T14:59:14;10.10;99.90
29575;DHT22;16507;51.046;6.406;2022-12-24T15:01:39;10.00;99.90
29575;DHT22;16507;51.046;6.406;2022-12-24T15:09:02;9.70;99.90
29575;DHT22;16507;51.046;6.406;2022-12-24T15:11:28;9.70;99.90
29575;DHT22;16507;51.046;6.406;2022-12-24T15:13:56;9.60;99.90
29575;DHT22;16507;51.046;6.406;2022-12-24T15:16:24;9.50;99.90
29575;DHT22;16507;51.046;6.406;2022-12-24T15:18:51;9.40;99.90
29575;DHT22;16507;51.046;6.406;2022-12-24T15:23:52;9.30;99.90
29575;DHT22;16507;51.046;6.406;2022-12-24T15:28:47;9.20;99.90
29575;DHT22;16507;51.046;6.406;2022-12-24T15:31:22;9.30;99.90
29575;DHT22;16507;51.046;6.406;2022-12-24T15:33:49;9.30;99.90
29575;DHT22;16507;51.046;6.406;2022-12-24T15:36:15;9.30;99.90
29575;DHT22;16507;51.046;6.406;2022-12-24T15:38:43;9.20;99.90
29575;DHT22;16507;51.046;6.406;2022-12-24T15:43:40;9.30;99.90
29575;DHT22;16507;51.046;6.406;2022-12-24T15:46:06;9.20;99.90
29575;DHT22;16507;51.046;6.406;2022-12-24T15:48:32;9.20;99.90
29575;DHT22;16507;51.046;6.406;2022-12-24T15:50:58;9.00;99.90
29575;DHT22;16507;51.046;6.406;2022-12-24T15:53:29;9.00;99.90
29575;DHT22;16507;51.046;6.406;2022-12-24T15:58:44;8.90;99.90
29575;DHT22;16507;51.046;6.406;2022-12-24T16:06:13;8.70;99.90
29575;DHT22;16507;51.046;6.406;2022-12-24T16:08:39;8.60;99.90
29575;DHT22;16507;51.046;6.406;2022-12-24T16:13:30;8.40;99.90
29575;DHT22;16507;51.046;6.406;2022-12-24T16:15:59;8.30;99.90
29575;DHT22;16507;51.046;6.406;2022-12-24T16:18:27;8.20;99.90
29575;DHT22;16507;51.046;6.406;2022-12-24T16:20:55;8.00;99.90
29575;DHT22;16507;51.046;6.406;2022-12-24T16:23:22;7.90;99.90
29575;DHT22;16507;51.046;6.406;2022-12-24T16:25:48;7.80;99.90
29575;DHT22;16507;51.046;6.406;2022-12-24T16:28:13;7.70;99.90
29575;DHT22;16507;51.046;6.406;2022-12-24T16:30:39;7.50;99.90
29575;DHT22;16507;51.046;6.406;2022-12-24T16:33:04;7.50;99.90
29575;DHT22;16507;51.046;6.406;2022-12-24T16:35:31;7.50;99.90
29575;DHT22;16507;51.046;6.406;2022-12-24T16:38:01;7.40;99.90
29575;DHT22;16507;51.046;6.406;2022-12-24T16:40:26;7.30;99.90
29575;DHT22;16507;51.046;6.406;2022-12-24T16:42:52;7.20;99.90
29575;DHT22;16507;51.046;6.406;2022-12-24T16:45:36;7.10;99.90
29575;DHT22;16507;51.046;6.406;2022-12-24T16:48:02;7.10;99.90
29575;DHT22;16507;51.046;6.406;2022-12-24T16:50:29;7.10;99.90
29575;DHT22;16507;51.046;6.406;2022-12-24T16:52:55;7.10;99.90
29575;DHT22;16507;51.046;6.406;2022-12-24T16:55:20;7.00;99.90
29575;DHT22;16507;51.046;6.406;2022-12-24T16:57:46;7.00;99.90
29575;DHT22;16507;51.046;6.406;2022-12-24T17:00:14;7.00;99.90
29575;DHT22;16507;51.046;6.406;2022-12-24T17:02:40;7.00;99.90
29575;DHT22;16507;51.046;6.406;2022-12-24T17:05:05;7.00;99.90
29575;DHT22;16507;51.046;6.406;2022-12-24T17:07:31;7.00;99.90
29575;DHT22;16507;51.046;6.406;2022-12-24T17:09:56;6.90;99.90
29575;DHT22;16507;51.046;6.406;2022-12-24T17:12:22;6.90;99.90
29575;DHT22;16507;51.046;6.406;2022-12-24T17:14:47;6.70;99.90
29575;DHT22;16507;51.046;6.406;2022-12-24T17:17:24;6.70;99.90
29575;DHT22;16507;51.046;6.406;2022-12-24T17:19:50;6.70;99.90
29575;DHT22;16507;51.046;6.406;2022-12-24T17:22:15;6.60;99.90
29575;DHT22;16507;51.046;6.406;2022-12-24T17:24:41;6.60;99.90
29575;DHT22;16507;51.046;6.406;2022-12-24T17:27:07;6.60;99.90
29575;DHT22;16507;51.046;6.406;2022-12-24T17:29:32;6.60;99.90
29575;DHT22;16507;51.046;6.406;2022-12-24T17:31:58;6.60;99.90
29575;DHT22;16507;51.046;6.406;2022-12-24T17:34:23;6.60;99.90
29575;DHT22;16507;51.046;6.406;2022-12-24T17:36:49;6.50;99.90
29575;DHT22;16507;51.046;6.406;2022-12-24T17:39:14;6.50;99.90
29575;DHT22;16507;51.046;6.406;2022-12-24T17:41:40;6.50;99.90
29575;DHT22;16507;51.046;6.406;2022-12-24T17:44:05;6.60;99.90
29575;DHT22;16507;51.046;6.406;2022-12-24T17:46:33;6.80;99.90
29575;DHT22;16507;51.046;6.406;2022-12-24T17:48:58;6.80;99.90
29575;DHT22;16507;51.046;6.406;2022-12-24T17:51:24;6.90;99.90
29575;DHT22;16507;51.046;6.406;2022-12-24T17:53:49;6.80;99.90
29575;DHT22;16507;51.046;6.406;2022-12-24T17:56:15;6.80;99.90
29575;DHT22;16507;51.046;6.406;2022-12-24T17:58:41;6.80;99.90
29575;DHT22;16507;51.046;6.406;2022-12-24T18:01:14;6.70;99.90